createdAt,value
2022-12-03T00:02:03.217Z,89.70
2022-12-03T00:04:30.485Z,89.42
2022-12-03T00:06:57.796Z,89.20
2022-12-03T00:09:25.029Z,88.40
2022-12-03T00:11:52.382Z,88.91
2022-12-03T00:14:19.613Z,89.33
2022-12-03T00:16:47.568Z,89.09
2022-12-03T00:19:15.113Z,89.21
2022-12-03T00:21:42.409Z,89.17
2022-12-03T00:24:09.668Z,89.06
2022-12-03T00:26:36.991Z,88.57
2022-12-03T00:29:04.243Z,88.73
2022-12-03T00:31:31.593Z,88.73
2022-12-03T00:33:58.850Z,88.57
2022-12-03T00:36:26.125Z,88.80
2022-12-03T00:38:54.416Z,88.89
2022-12-03T00:41:21.748Z,88.78
2022-12-03T00:43:48.955Z,88.60
2022-12-03T00:46:21.103Z,88.71
2022-12-03T00:48:48.955Z,89.01
2022-12-03T00:51:16.145Z,88.33
2022-12-03T00:53:43.419Z,88.13
2022-12-03T00:56:10.883Z,88.42
2022-12-03T00:58:38.147Z,88.75
2022-12-03T01:01:05.459Z,88.90
2022-12-03T01:03:32.818Z,88.98
2022-12-03T01:06:00.249Z,88.47
2022-12-03T01:08:27.567Z,88.67
2022-12-03T01:10:54.817Z,89.46
2022-12-03T01:13:22.108Z,89.48
2022-12-03T01:15:49.404Z,89.71
2022-12-03T01:18:16.727Z,89.76
2022-12-03T01:20:44.002Z,89.84
2022-12-03T01:23:13.516Z,89.97
2022-12-03T01:25:40.761Z,90.26
2022-12-03T01:28:08.113Z,90.15
2022-12-03T01:30:55.422Z,90.24
2022-12-03T01:33:22.764Z,90.35
2022-12-03T01:35:50.091Z,90.00
2022-12-03T01:38:17.629Z,89.66
2022-12-03T01:40:45.201Z,89.73
2022-12-03T01:43:12.484Z,90.06
2022-12-03T01:45:39.699Z,90.05
2022-12-03T01:48:06.958Z,90.18
2022-12-03T01:50:34.218Z,90.16
2022-12-03T01:53:02.637Z,89.57
2022-12-03T01:55:29.933Z,89.49
2022-12-03T01:57:59.036Z,89.05
2022-12-03T02:00:29.702Z,89.11
2022-12-03T02:03:00.903Z,88.69
2022-12-03T02:05:29.940Z,88.31
2022-12-03T02:07:57.481Z,88.38
2022-12-03T02:10:33.971Z,88.50
2022-12-03T02:13:10.447Z,87.94
2022-12-03T02:15:38.782Z,87.62
2022-12-03T02:18:06.118Z,88.68
2022-12-03T02:20:33.672Z,88.69
2022-12-03T02:23:23.966Z,88.84
2022-12-03T02:25:51.303Z,88.69
2022-12-03T02:28:18.595Z,88.57
2022-12-03T02:30:45.883Z,88.79
2022-12-03T02:33:13.144Z,88.48
2022-12-03T02:35:40.534Z,88.63
2022-12-03T02:38:23.315Z,88.72
2022-12-03T02:40:52.678Z,88.50
2022-12-03T02:43:19.955Z,88.76
2022-12-03T02:45:48.789Z,88.49
2022-12-03T02:48:16.726Z,88.29
2022-12-03T02:50:48.365Z,88.29
2022-12-03T02:53:18.368Z,88.09
2022-12-03T02:55:45.687Z,88.26
2022-12-03T02:58:12.986Z,88.63
2022-12-03T03:00:40.707Z,88.59
2022-12-03T03:03:07.954Z,88.68
2022-12-03T03:05:36.488Z,88.80
2022-12-03T03:08:03.826Z,88.49
2022-12-03T03:10:31.285Z,88.45
2022-12-03T03:12:58.504Z,88.33
2022-12-03T03:15:25.807Z,88.43
2022-12-03T03:17:53.135Z,87.99
2022-12-03T03:20:20.540Z,88.03
2022-12-03T03:22:47.782Z,88.32
2022-12-03T03:25:17.136Z,88.19
2022-12-03T03:27:44.360Z,88.30
2022-12-03T03:30:12.057Z,87.94
2022-12-03T03:32:39.380Z,88.18
2022-12-03T03:35:08.889Z,88.63
2022-12-03T03:37:36.147Z,88.59
2022-12-03T03:40:03.629Z,88.03
2022-12-03T03:42:30.846Z,87.84
2022-12-03T03:44:58.093Z,86.94
2022-12-03T03:47:25.814Z,87.28
2022-12-03T03:49:53.229Z,87.81
2022-12-03T03:52:20.477Z,87.98
2022-12-03T03:54:47.790Z,88.22
2022-12-03T03:57:15.042Z,88.29
2022-12-03T03:59:42.381Z,88.06
2022-12-03T04:02:23.036Z,87.97
2022-12-03T04:04:50.678Z,87.15
2022-12-03T04:07:18.143Z,87.81
2022-12-03T04:09:45.498Z,87.79
2022-12-03T04:12:31.259Z,87.95
2022-12-03T04:14:58.516Z,87.68
2022-12-03T04:17:25.963Z,88.07
2022-12-03T04:19:53.330Z,87.99
2022-12-03T04:22:39.337Z,88.57
2022-12-03T04:25:30.844Z,88.33
2022-12-03T04:28:16.807Z,88.71
2022-12-03T04:30:44.219Z,88.29
2022-12-03T04:33:30.079Z,88.24
2022-12-03T04:35:57.475Z,88.22
2022-12-03T04:38:24.783Z,88.15
2022-12-03T04:41:00.935Z,88.59
2022-12-03T04:43:28.849Z,88.55
2022-12-03T04:45:56.072Z,89.11
2022-12-03T04:48:23.675Z,89.27
2022-12-03T04:50:50.881Z,89.11
2022-12-03T04:53:18.265Z,89.00
2022-12-03T04:55:45.509Z,89.39
2022-12-03T04:58:12.763Z,89.37
2022-12-03T05:00:40.068Z,89.26
2022-12-03T05:03:07.435Z,89.52
2022-12-03T05:05:34.672Z,89.52
2022-12-03T05:08:02.067Z,89.99
2022-12-03T05:10:29.348Z,89.72
2022-12-03T05:12:56.750Z,90.08
2022-12-03T05:15:23.942Z,90.22
2022-12-03T05:17:51.240Z,90.64
2022-12-03T05:20:36.875Z,91.03
2022-12-03T05:23:04.220Z,91.07
2022-12-03T05:25:31.472Z,90.86
2022-12-03T05:27:58.738Z,90.65
2022-12-03T05:30:26.030Z,90.53
2022-12-03T05:32:53.385Z,90.63
2022-12-03T05:35:20.604Z,90.86
2022-12-03T05:37:47.951Z,90.88
2022-12-03T05:40:15.428Z,90.92
2022-12-03T05:42:54.865Z,90.75
2022-12-03T05:45:25.718Z,90.71
2022-12-03T05:47:53.530Z,90.80
2022-12-03T05:50:21.580Z,90.66
2022-12-03T05:52:48.908Z,90.69
2022-12-03T05:55:16.370Z,90.32
2022-12-03T05:57:43.786Z,90.36
2022-12-03T06:00:30.765Z,90.28
2022-12-03T06:02:58.546Z,90.49
2022-12-03T06:05:26.028Z,90.74
2022-12-03T06:07:53.391Z,91.14
2022-12-03T06:10:24.700Z,91.16
2022-12-03T06:12:52.217Z,91.14
2022-12-03T06:15:19.575Z,91.21
2022-12-03T06:17:47.022Z,91.31
2022-12-03T06:20:15.736Z,91.24
2022-12-03T06:22:43.053Z,91.07
2022-12-03T06:25:10.436Z,91.15
2022-12-03T06:27:37.834Z,90.95
2022-12-03T06:30:06.116Z,90.49
2022-12-03T06:32:33.450Z,90.35
2022-12-03T06:35:00.664Z,90.26
2022-12-03T06:37:27.977Z,90.01
2022-12-03T06:39:55.245Z,89.81
2022-12-03T06:42:22.675Z,89.90
2022-12-03T06:44:49.983Z,89.84
2022-12-03T06:47:17.355Z,89.77
2022-12-03T06:49:44.618Z,89.66
2022-12-03T06:52:11.976Z,89.82
2022-12-03T06:54:39.250Z,89.56
2022-12-03T06:57:06.567Z,89.48
2022-12-03T06:59:36.008Z,89.39
2022-12-03T07:02:04.303Z,88.91
2022-12-03T07:04:31.604Z,89.75
2022-12-03T07:06:58.978Z,89.78
2022-12-03T07:09:26.225Z,89.87
2022-12-03T07:11:53.512Z,90.04
2022-12-03T07:14:20.931Z,90.03
2022-12-03T07:16:48.336Z,89.89
2022-12-03T07:19:15.701Z,89.90
2022-12-03T07:21:43.046Z,89.82
2022-12-03T07:24:10.352Z,89.76
2022-12-03T07:26:37.678Z,89.47
2022-12-03T07:29:04.889Z,90.06
2022-12-03T07:31:32.440Z,90.09
2022-12-03T07:34:01.263Z,90.32
2022-12-03T07:36:28.584Z,90.24
2022-12-03T07:38:55.910Z,90.30
2022-12-03T07:41:23.190Z,90.18
2022-12-03T07:43:50.466Z,90.07
2022-12-03T07:46:17.955Z,90.13
2022-12-03T07:48:45.247Z,89.65
2022-12-03T07:51:15.143Z,90.03
2022-12-03T07:53:43.117Z,89.82
2022-12-03T07:56:10.414Z,89.69
2022-12-03T07:58:37.696Z,89.63
2022-12-03T08:01:05.197Z,90.10
2022-12-03T08:03:32.611Z,90.21
2022-12-03T08:05:59.829Z,90.34
2022-12-03T08:08:27.131Z,90.26
2022-12-03T08:10:54.340Z,90.32
2022-12-03T08:13:21.635Z,90.18
2022-12-03T08:15:48.984Z,90.20
2022-12-03T08:18:18.097Z,89.72
2022-12-03T08:20:46.411Z,89.56
2022-12-03T08:23:21.488Z,89.82
2022-12-03T08:25:49.761Z,89.93
2022-12-03T08:28:24.323Z,90.09
2022-12-03T08:31:02.633Z,90.51
2022-12-03T08:33:35.333Z,90.21
2022-12-03T08:36:16.160Z,90.24
2022-12-03T08:38:52.199Z,90.52
2022-12-03T08:41:38.622Z,90.33
2022-12-03T08:44:32.723Z,89.97
2022-12-03T08:47:09.129Z,89.89
2022-12-03T08:49:36.958Z,90.18
2022-12-03T08:52:11.802Z,90.05
2022-12-03T08:54:39.170Z,90.28
2022-12-03T08:57:21.938Z,90.23
2022-12-03T08:59:49.461Z,90.22
2022-12-03T09:02:20.807Z,90.25
2022-12-03T09:04:48.318Z,90.48
2022-12-03T09:07:15.543Z,90.49
2022-12-03T09:09:42.870Z,90.47
2022-12-03T09:12:10.147Z,89.84
2022-12-03T09:14:37.482Z,89.51
2022-12-03T09:17:04.895Z,89.60
2022-12-03T09:19:32.269Z,89.37
2022-12-03T09:21:59.563Z,89.43
2022-12-03T09:24:26.957Z,89.26
2022-12-03T09:26:54.148Z,89.14
2022-12-03T09:29:21.452Z,89.37
2022-12-03T09:31:48.772Z,89.01
2022-12-03T09:34:16.251Z,89.33
2022-12-03T09:36:43.540Z,89.27
2022-12-03T09:39:10.861Z,89.04
2022-12-03T09:41:38.107Z,88.39
2022-12-03T09:44:05.950Z,88.63
2022-12-03T09:46:35.221Z,88.75
2022-12-03T09:49:03.136Z,88.82
2022-12-03T09:51:34.663Z,88.54
2022-12-03T09:54:03.385Z,87.88
2022-12-03T09:56:30.643Z,88.13
2022-12-03T09:58:57.999Z,88.09
2022-12-03T10:01:29.890Z,87.77
2022-12-03T10:03:58.719Z,87.87
2022-12-03T10:06:25.975Z,87.83
2022-12-03T10:08:54.581Z,88.21
2022-12-03T10:11:24.166Z,88.22
2022-12-03T10:13:53.167Z,88.12
2022-12-03T10:16:21.092Z,87.86
2022-12-03T10:18:55.800Z,86.65
2022-12-03T10:21:27.396Z,86.96
2022-12-03T10:24:29.116Z,88.07
2022-12-03T10:26:58.034Z,88.42
2022-12-03T10:29:31.558Z,87.80
2022-12-03T10:32:05.310Z,87.98
2022-12-03T10:34:33.426Z,88.70
2022-12-03T10:37:12.896Z,88.98
2022-12-03T10:39:55.752Z,89.03
2022-12-03T10:42:28.148Z,89.38
2022-12-03T10:45:08.739Z,89.03
2022-12-03T10:47:36.306Z,89.86
2022-12-03T10:50:05.752Z,89.64
2022-12-03T10:52:33.028Z,89.39
2022-12-03T10:55:00.383Z,89.67
2022-12-03T10:57:27.896Z,89.83
2022-12-03T10:59:55.186Z,90.23
2022-12-03T11:02:23.746Z,90.33
2022-12-03T11:04:51.542Z,90.29
2022-12-03T11:07:20.420Z,90.63
2022-12-03T11:09:49.307Z,90.68
2022-12-03T11:12:27.337Z,90.86
2022-12-03T11:14:55.357Z,90.87
2022-12-03T11:17:48.926Z,90.95
2022-12-03T11:20:25.346Z,90.72
2022-12-03T11:22:56.057Z,90.70
2022-12-03T11:25:26.789Z,90.67
2022-12-03T11:28:12.484Z,91.29
2022-12-03T11:30:48.906Z,91.12
2022-12-03T11:33:25.027Z,90.78
2022-12-03T11:36:04.625Z,90.64
2022-12-03T11:38:38.257Z,90.63
2022-12-03T11:41:20.725Z,90.36
2022-12-03T11:43:56.875Z,90.20
2022-12-03T11:46:39.739Z,90.20
2022-12-03T11:49:29.099Z,90.71
2022-12-03T11:51:57.983Z,90.82
2022-12-03T11:54:25.212Z,91.02
2022-12-03T11:56:52.669Z,91.23
2022-12-03T11:59:20.005Z,91.56
2022-12-03T12:01:47.538Z,91.53
2022-12-03T12:04:35.021Z,91.74
2022-12-03T12:07:02.418Z,91.22
2022-12-03T12:09:49.251Z,91.34
2022-12-03T12:12:53.238Z,90.95
2022-12-03T12:15:35.468Z,90.97
2022-12-03T12:18:37.082Z,91.10
2022-12-03T12:21:38.541Z,90.94
2022-12-03T12:24:27.771Z,90.91
2022-12-03T12:26:55.961Z,91.36
2022-12-03T12:29:23.206Z,91.41
2022-12-03T12:31:53.937Z,91.54
2022-12-03T12:34:21.661Z,91.18
2022-12-03T12:36:48.859Z,91.51
2022-12-03T12:39:16.630Z,91.84
2022-12-03T12:41:43.851Z,91.76
2022-12-03T12:44:11.525Z,91.76
2022-12-03T12:46:47.844Z,91.56
2022-12-03T12:49:15.642Z,91.38
2022-12-03T12:51:44.365Z,91.45
2022-12-03T12:54:12.422Z,90.99
2022-12-03T12:56:42.574Z,90.87
2022-12-03T12:59:20.590Z,91.14
2022-12-03T13:01:49.255Z,90.93
2022-12-03T13:04:22.315Z,90.69
2022-12-03T13:06:51.352Z,90.99
2022-12-03T13:09:20.585Z,91.14
2022-12-03T13:11:52.461Z,91.03
2022-12-03T13:14:19.799Z,91.21
2022-12-03T13:16:51.333Z,91.34
2022-12-03T13:19:25.287Z,91.32
2022-12-03T13:21:53.706Z,91.42
2022-12-03T13:24:29.471Z,91.08
2022-12-03T13:26:56.993Z,90.84
2022-12-03T13:29:25.047Z,90.84
2022-12-03T13:31:53.162Z,90.96
2022-12-03T13:34:25.048Z,91.01
2022-12-03T13:39:42.486Z,90.52
2022-12-03T13:42:41.044Z,90.83
2022-12-03T13:45:14.212Z,90.65
2022-12-03T13:47:45.355Z,90.16
2022-12-03T13:50:33.853Z,90.19
2022-12-03T13:53:20.425Z,90.26
2022-12-03T13:55:49.629Z,90.43
2022-12-03T13:58:16.849Z,90.04
2022-12-03T14:00:44.403Z,89.71
2022-12-03T14:03:11.889Z,89.77
2022-12-03T14:05:39.215Z,90.10
2022-12-03T14:08:06.660Z,90.04
2022-12-03T14:10:34.116Z,89.82
2022-12-03T14:13:01.497Z,89.39
2022-12-03T14:15:28.802Z,89.77
2022-12-03T14:17:56.067Z,89.75
2022-12-03T14:20:23.445Z,89.95
2022-12-03T14:22:53.984Z,89.75
2022-12-03T14:25:24.997Z,89.54
2022-12-03T14:27:52.219Z,89.90
2022-12-03T14:30:19.516Z,90.02
2022-12-03T14:32:47.504Z,90.09
2022-12-03T14:35:14.924Z,90.15
2022-12-03T14:37:42.182Z,90.11
2022-12-03T14:40:09.682Z,90.16
2022-12-03T14:42:37.036Z,90.17
2022-12-03T14:45:04.689Z,90.00
2022-12-03T14:47:32.162Z,89.98
2022-12-03T14:50:00.558Z,90.05
2022-12-03T14:52:27.786Z,90.11
2022-12-03T14:54:55.194Z,90.20
2022-12-03T14:57:22.464Z,90.36
2022-12-03T14:59:49.825Z,90.25
2022-12-03T15:02:17.179Z,90.51
2022-12-03T15:04:44.492Z,90.48
2022-12-03T15:07:11.738Z,90.60
2022-12-03T15:09:39.068Z,90.47
2022-12-03T15:12:06.771Z,90.24
2022-12-03T15:14:34.124Z,90.43
2022-12-03T15:17:01.469Z,90.49
2022-12-03T15:19:28.899Z,90.63
2022-12-03T15:21:56.116Z,90.16
2022-12-03T15:24:23.410Z,90.20
2022-12-03T15:26:52.397Z,90.29
2022-12-03T15:29:20.383Z,90.43
2022-12-03T15:31:47.691Z,90.01
2022-12-03T15:34:20.343Z,89.52
2022-12-03T15:36:49.654Z,89.51
2022-12-03T15:39:16.884Z,90.20
2022-12-03T15:41:44.228Z,90.05
2022-12-03T15:44:11.449Z,89.97
2022-12-03T15:46:38.775Z,90.25
2022-12-03T15:49:06.072Z,90.19
2022-12-03T15:51:33.510Z,90.19
2022-12-03T15:54:00.819Z,90.37
2022-12-03T15:56:28.152Z,90.46
2022-12-03T15:58:55.382Z,89.90
2022-12-03T16:01:22.722Z,89.92
2022-12-03T16:03:50.023Z,90.08
2022-12-03T16:06:18.304Z,89.79
2022-12-03T16:08:46.081Z,89.49
2022-12-03T16:11:13.333Z,89.51
2022-12-03T16:13:40.587Z,89.64
2022-12-03T16:16:08.037Z,89.73
2022-12-03T16:18:35.375Z,89.47
2022-12-03T16:21:02.693Z,89.65
2022-12-03T16:23:29.912Z,89.67
2022-12-03T16:25:57.209Z,89.93
2022-12-03T16:28:24.474Z,90.01
2022-12-03T16:31:07.094Z,90.69
2022-12-03T16:33:34.552Z,90.96
2022-12-03T16:36:02.823Z,90.68
2022-12-03T16:38:31.133Z,90.45
2022-12-03T16:40:58.386Z,90.42
2022-12-03T16:43:25.958Z,90.44
2022-12-03T16:46:02.982Z,90.18
2022-12-03T16:48:30.423Z,89.71
2022-12-03T16:50:57.938Z,89.71
2022-12-03T16:53:25.307Z,89.97
2022-12-03T16:55:52.610Z,89.63
2022-12-03T16:58:21.528Z,89.65
2022-12-03T17:00:49.290Z,89.90
2022-12-03T17:03:17.965Z,89.65
2022-12-03T17:05:45.616Z,89.92
2022-12-03T17:08:13.625Z,89.53
2022-12-03T17:10:41.050Z,89.75
2022-12-03T17:13:10.119Z,89.97
2022-12-03T17:15:38.432Z,89.82
2022-12-03T17:18:06.388Z,89.97
2022-12-03T17:20:33.697Z,89.51
2022-12-03T17:23:01.249Z,89.22
2022-12-03T17:25:28.490Z,89.51
2022-12-03T17:27:55.845Z,89.78
2022-12-03T17:30:23.138Z,89.97
2022-12-03T17:32:50.603Z,90.04
2022-12-03T17:35:18.028Z,90.26
2022-12-03T17:37:45.618Z,90.48
2022-12-03T17:40:13.659Z,90.50
2022-12-03T17:42:40.955Z,90.57
2022-12-03T17:45:08.685Z,90.32
2022-12-03T17:47:35.950Z,89.75
2022-12-03T17:50:03.209Z,89.34
2022-12-03T17:52:30.543Z,90.00
2022-12-03T17:55:19.826Z,89.76
2022-12-03T17:57:45.071Z,89.74
2022-12-03T18:00:12.821Z,89.57
2022-12-03T18:02:40.961Z,89.65
2022-12-03T18:05:08.570Z,90.09
2022-12-03T18:07:35.938Z,89.94
2022-12-03T18:10:03.294Z,89.95
2022-12-03T18:12:30.660Z,89.87
2022-12-03T18:14:57.946Z,89.57
2022-12-03T18:17:25.300Z,89.60
2022-12-03T18:19:52.853Z,89.71
2022-12-03T18:22:20.610Z,89.89
2022-12-03T18:24:51.502Z,89.95
2022-12-03T18:27:22.686Z,90.36
2022-12-03T18:29:50.053Z,90.74
2022-12-03T18:32:28.269Z,90.96
2022-12-03T18:34:56.793Z,90.93
2022-12-03T18:37:26.641Z,90.85
2022-12-03T18:39:54.218Z,90.39
2022-12-03T18:42:22.996Z,90.42
2022-12-03T18:44:51.177Z,90.85
2022-12-03T18:47:20.192Z,90.76
2022-12-03T18:49:47.737Z,90.47
2022-12-03T18:52:15.899Z,90.60
2022-12-03T18:54:43.444Z,90.79
2022-12-03T18:57:10.849Z,90.51
2022-12-03T18:59:38.271Z,90.22
2022-12-03T19:02:05.852Z,90.66
2022-12-03T19:04:33.183Z,91.01
2022-12-03T19:07:00.635Z,91.18
2022-12-03T19:09:28.069Z,90.83
2022-12-03T19:11:55.352Z,90.91
2022-12-03T19:14:22.663Z,91.16
2022-12-03T19:16:50.270Z,91.18
2022-12-03T19:19:19.548Z,91.72
2022-12-03T19:21:46.785Z,92.04
2022-12-03T19:24:24.285Z,91.81
2022-12-03T19:26:55.414Z,91.39
2022-12-03T19:29:23.201Z,91.48
2022-12-03T19:31:51.306Z,91.29
2022-12-03T19:34:18.796Z,91.25
2022-12-03T19:36:46.267Z,91.07
2022-12-03T19:39:13.531Z,91.46
2022-12-03T19:41:43.259Z,91.59
2022-12-03T19:44:17.509Z,91.61
2022-12-03T19:46:44.891Z,92.03
2022-12-03T19:49:12.289Z,92.36
2022-12-03T19:51:39.646Z,92.25
2022-12-03T19:54:07.792Z,92.16
2022-12-03T19:56:35.170Z,92.15
2022-12-03T19:59:02.570Z,92.26
2022-12-03T20:01:31.706Z,92.11
2022-12-03T20:03:59.964Z,91.90
2022-12-03T20:06:29.651Z,91.47
2022-12-03T20:09:11.536Z,91.66
2022-12-03T20:11:39.526Z,92.15
2022-12-03T20:14:08.790Z,92.01
2022-12-03T20:16:36.220Z,91.64
2022-12-03T20:19:05.531Z,91.41
2022-12-03T20:21:33.793Z,91.43
2022-12-03T20:24:01.101Z,91.65
2022-12-03T20:26:28.451Z,91.62
2022-12-03T20:28:55.893Z,91.64
2022-12-03T20:31:24.877Z,91.67
2022-12-03T20:33:54.683Z,91.81
2022-12-03T20:36:22.956Z,91.91
2022-12-03T20:38:57.175Z,91.78
2022-12-03T20:41:24.543Z,91.65
2022-12-03T20:43:51.784Z,92.08
2022-12-03T20:46:21.311Z,91.89
2022-12-03T20:48:48.643Z,91.50
2022-12-03T20:51:18.074Z,91.41
2022-12-03T20:53:45.464Z,91.44
2022-12-03T20:56:20.606Z,91.50
2022-12-03T20:58:48.930Z,91.34
2022-12-03T21:01:21.003Z,91.61
2022-12-03T21:03:48.509Z,91.83
2022-12-03T21:06:16.067Z,92.08
2022-12-03T21:08:43.484Z,91.49
2022-12-03T21:11:12.224Z,91.29
2022-12-03T21:13:43.923Z,91.38
2022-12-03T21:16:26.148Z,91.53
2022-12-03T21:19:07.235Z,91.39
2022-12-03T21:21:35.538Z,91.07
2022-12-03T21:24:02.829Z,91.16
2022-12-03T21:26:30.087Z,91.27
2022-12-03T21:28:57.363Z,91.54
2022-12-03T21:31:26.006Z,91.88
2022-12-03T21:33:54.293Z,91.70
2022-12-03T21:36:21.732Z,91.62
2022-12-03T21:38:49.052Z,92.03
2022-12-03T21:41:16.316Z,92.03
2022-12-03T21:43:43.860Z,92.07
2022-12-03T21:47:08.156Z,92.29
2022-12-03T21:49:00.263Z,92.53
2022-12-03T21:51:27.471Z,92.44
2022-12-03T21:53:54.853Z,92.63
2022-12-03T21:56:22.205Z,92.60
2022-12-03T21:58:49.646Z,92.29
2022-12-03T22:01:23.791Z,91.25
2022-12-03T22:03:51.342Z,91.19
2022-12-03T22:06:18.727Z,91.57
2022-12-03T22:08:46.191Z,92.05
2022-12-03T22:11:15.613Z,92.27
2022-12-03T22:13:43.062Z,92.43
2022-12-03T22:16:11.976Z,92.23
2022-12-03T22:18:39.400Z,92.54
2022-12-03T22:21:11.951Z,92.67
2022-12-03T22:23:39.414Z,92.32
2022-12-03T22:26:08.444Z,92.36
2022-12-03T22:28:35.729Z,92.53
2022-12-03T22:31:07.110Z,92.85
2022-12-03T22:33:35.002Z,92.75
2022-12-03T22:36:04.073Z,92.44
2022-12-03T22:38:31.490Z,92.15
2022-12-03T22:40:58.886Z,92.43
2022-12-03T22:43:26.184Z,92.78
2022-12-03T22:45:54.880Z,92.71
2022-12-03T22:48:22.979Z,92.35
2022-12-03T22:50:50.986Z,92.38
2022-12-03T22:53:18.504Z,92.73
2022-12-03T22:55:58.009Z,92.29
2022-12-03T22:58:25.892Z,92.17
2022-12-03T23:00:53.117Z,92.55
2022-12-03T23:03:20.473Z,92.85
2022-12-03T23:05:47.752Z,92.95
2022-12-03T23:08:17.475Z,92.81
2022-12-03T23:10:46.576Z,92.34
2022-12-03T23:13:13.864Z,91.69
2022-12-03T23:15:51.357Z,91.94
2022-12-03T23:18:19.309Z,92.25
2022-12-03T23:20:51.365Z,92.61
2022-12-03T23:23:19.581Z,92.86
2022-12-03T23:26:16.453Z,92.90
2022-12-03T23:28:44.934Z,92.81
2022-12-03T23:31:27.392Z,92.85
2022-12-03T23:33:55.076Z,93.06
2022-12-03T23:36:22.390Z,92.73
2022-12-03T23:38:49.863Z,92.73
2022-12-03T23:41:19.141Z,92.81
2022-12-03T23:43:46.660Z,92.66
2022-12-03T23:46:18.670Z,92.45
2022-12-03T23:48:46.194Z,92.66
2022-12-03T23:51:14.985Z,92.64
2022-12-03T23:53:42.411Z,92.93
2022-12-03T23:56:11.492Z,92.75
2022-12-03T23:58:38.858Z,92.81
